Time;durP1;ratioP1;P1;durP2;ratioP2;P2;SDS_P1;SDS_P2;PMS_P1;PMS_P2;Temp;Humidity;BMP_temperature;BMP_pressure;BME280_temperature;BME280_humidity;BME280_pressure;Samples;Min_cycle;Max_cycle;Signal;HPM_P1;HPM_P2
2023/05/23 00:00:16;;;;;;;;;;;;;;;11.85;75.68;101529.72;5051917;28;19970;-93
2023/05/23 00:02:41;;;;;;;;;;;;;;;11.70;75.84;101532.97;5032493;28;19929;-94
2023/05/23 00:05:07;;;;;;;;;;;;;;;11.68;77.22;101537.38;5034393;28;19966;-93
2023/05/23 00:07:32;;;;;;;;;;;;;;;11.60;77.49;101539.47;5034135;28;19998;-94
2023/05/23 00:09:57;;;;;;;;;;;;;;;11.54;78.24;101540.59;5034042;28;19925;-93
2023/05/23 00:12:23;;;;;;;;;;;;;;;11.57;78.55;101538.69;5033976;28;19921;-93
2023/05/23 00:14:48;;;;;;;;;;;;;;;11.51;78.73;101538.97;5034261;28;19924;-94
2023/05/23 00:17:16;;;;;;;;;;;;;;;11.42;79.53;101539.38;5034109;28;20337;-93
2023/05/23 00:19:44;;;;;;;;;;;;;;;11.41;80.05;101545.47;5034962;28;20302;-93
2023/05/23 00:22:09;;;;;;;;;;;;;;;11.47;80.22;101536.59;5033991;28;19921;-94
2023/05/23 00:24:34;;;;;;;;;;;;;;;11.41;80.32;101537.72;5033821;28;19967;-93
2023/05/23 00:27:00;;;;;;;;;;;;;;;11.38;80.23;101535.22;5033838;28;20392;-94
2023/05/23 00:29:26;;;;;;;;;;;;;;;11.39;80.03;101536.94;5037214;28;19916;-92
2023/05/23 00:31:51;;;;;;;;;;;;;;;11.30;81.01;101539.91;5037845;28;19928;-93
2023/05/23 00:34:16;;;;;;;;;;;;;;;11.25;81.55;101540.09;5036494;28;19920;-93
2023/05/23 00:36:42;;;;;;;;;;;;;;;11.26;81.85;101540.94;5037140;28;19928;-93
2023/05/23 00:39:08;;;;;;;;;;;;;;;11.24;82.48;101537.56;5037549;28;19948;-94
2023/05/23 00:41:33;;;;;;;;;;;;;;;11.16;82.85;101532.72;5037611;28;20349;-94
2023/05/23 00:43:59;;;;;;;;;;;;;;;11.22;82.84;101524.72;5037828;28;19925;-93
2023/05/23 00:46:28;;;;;;;;;;;;;;;11.13;83.00;101532.88;5037300;28;19972;-94
2023/05/23 00:48:53;;;;;;;;;;;;;;;11.16;83.23;101531.91;5036860;28;19924;-94
2023/05/23 00:51:19;;;;;;;;;;;;;;;11.01;83.73;101531.63;5037827;28;20341;-93
2023/05/23 00:53:44;;;;;;;;;;;;;;;10.98;84.36;101536.09;5036209;28;19955;-94
2023/05/23 00:56:11;;;;;;;;;;;;;;;10.97;84.36;101542.16;5037356;28;20275;-94
2023/05/23 00:58:36;;;;;;;;;;;;;;;10.86;85.59;101548.59;5036183;28;19991;-94
2023/05/23 01:01:01;;;;;;;;;;;;;;;10.83;84.79;101542.75;5053420;28;19928;-94
2023/05/23 01:03:27;;;;;;;;;;;;;;;10.81;85.70;101549.69;5037377;28;19917;-95
2023/05/23 01:05:53;;;;;;;;;;;;;;;10.75;86.45;101542.19;5055734;28;19924;-95
2023/05/23 01:08:18;;;;;;;;;;;;;;;10.62;87.00;101549.59;5037020;28;19925;-94
2023/05/23 01:10:43;;;;;;;;;;;;;;;10.68;87.01;101539.88;5037032;28;20411;-93
2023/05/23 01:13:19;;;;;;;;;;;;;;;10.52;87.76;101540.53;5052882;28;19925;-94
2023/05/23 01:15:51;;;;;;;;;;;;;;;10.46;88.09;101539.03;5039068;28;19964;-93
2023/05/23 01:18:20;;;;;;;;;;;;;;;10.54;88.53;101536.16;5036841;28;20338;-93
2023/05/23 01:20:48;;;;;;;;;;;;;;;10.55;89.60;101537.84;5037699;28;19917;-93
2023/05/23 01:23:26;;;;;;;;;;;;;;;10.52;90.28;101538.78;5036546;28;20007;-94
2023/05/23 01:26:00;;;;;;;;;;;;;;;10.58;90.00;101528.22;5035801;28;19964;-94
2023/05/23 01:28:27;;;;;;;;;;;;;;;10.62;90.11;101534.94;5036633;28;19990;-95
2023/05/23 01:30:56;;;;;;;;;;;;;;;10.65;89.63;101526.22;5037836;28;19916;-94
2023/05/23 01:33:21;;;;;;;;;;;;;;;10.61;90.35;101532.44;5036348;28;19928;-95
2023/05/23 01:35:47;;;;;;;;;;;;;;;10.61;90.65;101528.09;5033614;28;19921;-93
2023/05/23 01:38:12;;;;;;;;;;;;;;;10.63;90.38;101536.63;5037604;28;19913;-94
2023/05/23 01:40:37;;;;;;;;;;;;;;;10.64;90.10;101535.72;5036182;28;19948;-94
2023/05/23 01:43:03;;;;;;;;;;;;;;;10.50;91.08;101538.00;5036312;28;19916;-93
2023/05/23 01:45:28;;;;;;;;;;;;;;;10.47;91.83;101541.56;5034995;28;20381;-94
2023/05/23 01:47:55;;;;;;;;;;;;;;;10.45;91.78;101545.09;5034725;28;19921;-94
2023/05/23 01:50:21;;;;;;;;;;;;;;;10.43;91.96;101544.31;5036802;28;20004;-95
2023/05/23 01:52:46;;;;;;;;;;;;;;;10.47;91.17;101544.13;5036393;28;19951;-94
2023/05/23 01:55:14;;;;;;;;;;;;;;;10.50;90.52;101546.59;5036923;28;19924;-94
2023/05/23 01:57:41;;;;;;;;;;;;;;;10.41;90.60;101543.53;5036839;28;19916;-94
2023/05/23 02:00:07;;;;;;;;;;;;;;;10.32;91.50;101542.16;5054800;28;19917;-94
2023/05/23 02:02:35;;;;;;;;;;;;;;;10.37;91.59;101542.00;5036913;28;19963;-94
2023/05/23 02:05:00;;;;;;;;;;;;;;;10.41;90.71;101540.94;5036905;28;19924;-94
2023/05/23 02:07:26;;;;;;;;;;;;;;;10.27;91.22;101544.88;5036748;28;19917;-94
2023/05/23 02:09:51;;;;;;;;;;;;;;;10.26;91.74;101548.34;5036303;28;20011;-94
2023/05/23 02:12:16;;;;;;;;;;;;;;;10.28;92.20;101544.00;5036651;28;20109;-93
2023/05/23 02:14:42;;;;;;;;;;;;;;;10.33;91.24;101550.72;5035761;28;19921;-95
2023/05/23 02:17:10;;;;;;;;;;;;;;;10.33;90.82;101549.00;5036354;28;20268;-95
2023/05/23 02:19:37;;;;;;;;;;;;;;;10.38;90.69;101548.81;5019814;28;23092;-94
2023/05/23 02:22:03;;;;;;;;;;;;;;;10.40;90.63;101554.75;5036095;28;19970;-93
2023/05/23 02:24:28;;;;;;;;;;;;;;;10.33;91.29;101568.81;5035960;28;20298;-94
2023/05/23 02:26:54;;;;;;;;;;;;;;;10.23;91.43;101563.13;5036759;28;19920;-94
2023/05/23 02:29:19;;;;;;;;;;;;;;;10.27;91.50;101560.38;5036445;28;20364;-95
2023/05/23 02:31:44;;;;;;;;;;;;;;;10.24;91.13;101565.66;5036060;28;20401;-94
2023/05/23 02:34:10;;;;;;;;;;;;;;;10.12;90.76;101554.94;5036263;28;19955;-93
2023/05/23 02:36:35;;;;;;;;;;;;;;;10.19;91.28;101559.81;5054057;28;20005;-94
2023/05/23 02:39:01;;;;;;;;;;;;;;;10.09;90.99;101561.03;5054019;28;20355;-94
2023/05/23 02:41:26;;;;;;;;;;;;;;;10.12;91.19;101570.41;5036437;28;20409;-93
2023/05/23 02:43:51;;;;;;;;;;;;;;;10.15;89.98;101566.00;5036235;28;19928;-94
2023/05/23 02:46:17;;;;;;;;;;;;;;;10.07;90.01;101571.44;5035961;28;19936;-94
2023/05/23 02:48:42;;;;;;;;;;;;;;;10.07;90.13;101574.03;5052535;28;19920;-94
2023/05/23 02:51:07;;;;;;;;;;;;;;;10.15;89.23;101568.56;5035827;28;19923;-94
2023/05/23 02:53:32;;;;;;;;;;;;;;;10.06;88.80;101568.91;5034924;28;19921;-94
2023/05/23 02:55:58;;;;;;;;;;;;;;;9.93;90.30;101568.53;5035054;28;19960;-93
2023/05/23 02:58:24;;;;;;;;;;;;;;;10.01;89.48;101568.25;5035885;28;19917;-94
2023/05/23 03:00:49;;;;;;;;;;;;;;;9.95;89.75;101565.88;5035850;28;20334;-95
2023/05/23 03:03:16;;;;;;;;;;;;;;;9.85;90.12;101571.38;5034720;28;19927;-95
2023/05/23 03:05:41;;;;;;;;;;;;;;;9.74;89.70;101570.91;5035789;28;19920;-93
2023/05/23 03:08:07;;;;;;;;;;;;;;;9.76;89.94;101579.44;5035692;28;19936;-93
2023/05/23 03:10:32;;;;;;;;;;;;;;;9.62;91.06;101577.34;5034613;28;19924;-93
2023/05/23 03:12:58;;;;;;;;;;;;;;;9.67;90.76;101574.59;5033472;28;19924;-95
2023/05/23 03:15:23;;;;;;;;;;;;;;;9.74;90.15;101573.50;5052598;28;19998;-93
2023/05/23 03:17:48;;;;;;;;;;;;;;;9.68;90.42;101576.31;5035792;28;19920;-94
2023/05/23 03:20:14;;;;;;;;;;;;;;;9.71;90.88;101575.34;5035138;28;19921;-94
2023/05/23 03:22:42;;;;;;;;;;;;;;;9.64;90.97;101575.56;5023454;28;19924;-94
2023/05/23 03:25:07;;;;;;;;;;;;;;;9.78;89.76;101571.66;5020034;28;19923;-95
2023/05/23 03:27:32;;;;;;;;;;;;;;;9.69;90.19;101567.66;5035555;28;19917;-94
2023/05/23 03:29:58;;;;;;;;;;;;;;;9.60;90.86;101570.56;5035472;28;19923;-94
2023/05/23 03:32:23;;;;;;;;;;;;;;;9.60;90.34;101565.41;5035397;28;20317;-93
2023/05/23 03:34:48;;;;;;;;;;;;;;;9.57;89.90;101562.94;5035637;28;20171;-93
2023/05/23 03:37:13;;;;;;;;;;;;;;;9.48;89.88;101563.25;5035331;28;19921;-94
2023/05/23 03:39:39;;;;;;;;;;;;;;;9.28;91.19;101563.94;5035131;28;19916;-94
2023/05/23 03:42:04;;;;;;;;;;;;;;;9.22;93.42;101567.59;5035442;28;19916;-94
2023/05/23 03:44:29;;;;;;;;;;;;;;;9.29;93.20;101579.38;5035335;28;19917;-93
2023/05/23 03:46:55;;;;;;;;;;;;;;;9.33;92.71;101578.34;5035264;28;19970;-93
2023/05/23 03:49:20;;;;;;;;;;;;;;;9.29;92.46;101575.94;5034972;28;19921;-93
2023/05/23 03:51:45;;;;;;;;;;;;;;;9.26;93.33;101576.88;5035163;28;19935;-94
2023/05/23 03:54:10;;;;;;;;;;;;;;;9.30;92.37;101573.31;5036131;28;19975;-94
2023/05/23 03:56:36;;;;;;;;;;;;;;;9.21;91.87;101577.03;5035640;28;19962;-96
2023/05/23 03:59:01;;;;;;;;;;;;;;;9.14;91.06;101579.88;5034685;28;19920;-95
2023/05/23 04:01:26;;;;;;;;;;;;;;;9.08;91.03;101582.66;5035639;28;19939;-95
2023/05/23 04:03:52;;;;;;;;;;;;;;;8.82;93.18;101584.31;5038579;28;19917;-95
2023/05/23 04:06:19;;;;;;;;;;;;;;;8.52;97.56;101581.81;5041011;28;19917;-94
2023/05/23 04:08:44;;;;;;;;;;;;;;;8.73;96.98;101590.63;5040089;28;20333;-95
2023/05/23 04:11:09;;;;;;;;;;;;;;;8.77;95.96;101584.47;5039924;28;19916;-94
2023/05/23 04:13:35;;;;;;;;;;;;;;;8.81;96.04;101592.94;5039728;28;19916;-94
2023/05/23 04:16:04;;;;;;;;;;;;;;;8.74;96.30;101591.47;5040262;28;19916;-95
2023/05/23 04:18:29;;;;;;;;;;;;;;;8.61;97.07;101592.72;5040324;28;19970;-95
2023/05/23 04:20:55;;;;;;;;;;;;;;;8.59;96.95;101597.91;5040170;28;19917;-95
2023/05/23 04:23:20;;;;;;;;;;;;;;;8.55;97.16;101586.03;5040316;28;20016;-95
2023/05/23 04:25:47;;;;;;;;;;;;;;;8.55;97.89;101598.91;5040849;28;19921;-95
2023/05/23 04:28:12;;;;;;;;;;;;;;;8.43;98.04;101597.53;5040475;28;19923;-95
2023/05/23 04:30:38;;;;;;;;;;;;;;;8.47;98.22;101599.13;5038198;28;19917;-94
2023/05/23 04:33:03;;;;;;;;;;;;;;;8.53;97.79;101596.38;5038543;28;19917;-94
2023/05/23 04:35:28;;;;;;;;;;;;;;;8.63;97.23;101599.50;5038628;28;20501;-94
2023/05/23 04:37:55;;;;;;;;;;;;;;;8.69;96.31;101608.78;5038454;28;20290;-94
2023/05/23 04:40:21;;;;;;;;;;;;;;;8.76;96.37;101605.97;5038297;28;19963;-93
2023/05/23 04:42:47;;;;;;;;;;;;;;;8.79;96.37;101605.84;5038580;28;19967;-94
2023/05/23 04:45:12;;;;;;;;;;;;;;;8.82;96.58;101610.06;5036167;28;19943;-94
2023/05/23 04:47:37;;;;;;;;;;;;;;;8.87;96.28;101608.19;5037488;28;19951;-96
2023/05/23 04:50:03;;;;;;;;;;;;;;;8.88;95.50;101609.88;5037989;28;20394;-94
2023/05/23 04:52:29;;;;;;;;;;;;;;;8.88;95.29;101609.06;5038273;28;19936;-93
2023/05/23 04:54:54;;;;;;;;;;;;;;;8.93;96.03;101613.16;5039066;28;19917;-93
2023/05/23 04:57:20;;;;;;;;;;;;;;;8.95;96.56;101621.69;5038427;28;19912;-93
2023/05/23 04:59:46;;;;;;;;;;;;;;;9.00;96.64;101618.97;5038272;28;20016;-93
2023/05/23 05:02:11;;;;;;;;;;;;;;;9.02;96.77;101611.16;5038260;28;20003;-93
2023/05/23 05:04:36;;;;;;;;;;;;;;;9.06;96.00;101612.75;5037499;28;20371;-94
2023/05/23 05:07:03;;;;;;;;;;;;;;;9.01;94.69;101620.63;5038448;28;20373;-93
2023/05/23 05:09:29;;;;;;;;;;;;;;;9.10;94.88;101619.50;5038455;28;19962;-93
2023/05/23 05:11:54;;;;;;;;;;;;;;;9.15;95.30;101617.63;5038150;28;20412;-95
2023/05/23 05:14:19;;;;;;;;;;;;;;;9.17;95.80;101614.09;5036488;28;19964;-93
2023/05/23 05:16:45;;;;;;;;;;;;;;;9.29;94.35;101627.44;5038425;28;20460;-94
2023/05/23 05:19:11;;;;;;;;;;;;;;;9.28;93.87;101624.03;5037842;28;19939;-93
2023/05/23 05:21:36;;;;;;;;;;;;;;;9.26;93.76;101633.56;5037373;28;20018;-93
2023/05/23 05:24:01;;;;;;;;;;;;;;;9.30;93.54;101636.88;5038162;28;19963;-92
2023/05/23 05:26:26;;;;;;;;;;;;;;;9.30;93.67;101637.72;5039042;28;19916;-93
2023/05/23 05:28:52;;;;;;;;;;;;;;;9.32;93.97;101635.09;5040253;28;19966;-93
2023/05/23 05:31:17;;;;;;;;;;;;;;;9.30;94.42;101640.28;5039335;28;20290;-92
2023/05/23 05:33:44;;;;;;;;;;;;;;;9.38;94.39;101635.72;5038110;28;19923;-91
2023/05/23 05:36:10;;;;;;;;;;;;;;;9.43;94.70;101638.97;5037204;28;20011;-92
2023/05/23 05:38:35;;;;;;;;;;;;;;;9.55;94.54;101642.06;5027088;28;20349;-92
2023/05/23 05:41:00;;;;;;;;;;;;;;;9.61;94.79;101639.28;5026746;28;19921;-94
2023/05/23 05:43:25;;;;;;;;;;;;;;;9.72;94.50;101650.06;5025215;28;19988;-93
2023/05/23 05:45:51;;;;;;;;;;;;;;;9.76;95.43;101646.47;5040054;28;19921;-92
2023/05/23 05:48:16;;;;;;;;;;;;;;;9.88;94.59;101654.69;5042957;28;19919;-92
2023/05/23 05:50:44;;;;;;;;;;;;;;;10.00;94.06;101641.38;5023098;28;19921;-93
2023/05/23 05:53:09;;;;;;;;;;;;;;;10.16;94.06;101639.91;5036977;28;19964;-93
2023/05/23 05:55:34;;;;;;;;;;;;;;;10.21;95.13;101637.97;5053570;28;20311;-91
2023/05/23 05:58:00;;;;;;;;;;;;;;;10.36;94.23;101633.19;5035765;28;19925;-93
2023/05/23 06:00:25;;;;;;;;;;;;;;;10.52;92.54;101626.56;5038756;28;20442;-93
2023/05/23 06:02:50;;;;;;;;;;;;;;;10.75;91.16;101625.66;5036009;28;19917;-92
2023/05/23 06:05:16;;;;;;;;;;;;;;;10.91;88.08;101628.50;5038075;28;19917;-93
2023/05/23 06:07:46;;;;;;;;;;;;;;;11.06;87.76;101627.03;5036736;28;19916;-92
2023/05/23 06:10:12;;;;;;;;;;;;;;;11.30;83.79;101627.78;5054278;28;19917;-91
2023/05/23 06:12:38;;;;;;;;;;;;;;;11.55;82.51;101631.00;5046403;28;19920;-95
2023/05/23 06:15:03;;;;;;;;;;;;;;;11.76;80.52;101626.66;5050060;28;19905;-94
2023/05/23 06:17:29;;;;;;;;;;;;;;;11.99;81.29;101624.84;5171841;22;19931;-95
2023/05/23 06:19:54;;;;;;;;;;;;;;;12.23;79.85;101633.25;5054077;28;19921;-93
2023/05/23 06:22:19;;;;;;;;;;;;;;;12.99;77.01;101633.19;5047185;28;19921;-95
2023/05/23 06:24:53;;;;;;;;;;;;;;;14.47;70.23;101616.91;5057689;28;20319;-96
2023/05/23 06:27:18;;;;;;;;;;;;;;;14.50;66.11;101623.69;5206324;22;19933;-96
2023/05/23 06:32:11;;;;;;;;;;;;;;;15.59;63.38;101625.28;5047714;28;19909;-96
2023/05/23 06:34:39;;;;;;;;;;;;;;;15.64;63.08;101631.06;5052557;28;19992;-96
2023/05/23 06:37:24;;;;;;;;;;;;;;;15.54;61.10;101627.34;5220243;22;19932;-93
2023/05/23 06:39:49;;;;;;;;;;;;;;;15.53;60.36;101630.84;5003345;28;19921;-94
2023/05/23 06:42:15;;;;;;;;;;;;;;;15.35;59.34;101630.19;4993956;28;19918;-94
2023/05/23 06:44:40;;;;;;;;;;;;;;;15.20;60.62;101626.72;5008304;28;20288;-94
2023/05/23 06:47:05;;;;;;;;;;;;;;;15.01;62.11;101631.28;5013364;28;19957;-92
2023/05/23 06:49:31;;;;;;;;;;;;;;;14.72;61.63;101625.97;5016756;28;19924;-94
2023/05/23 06:51:56;;;;;;;;;;;;;;;15.05;61.31;101622.41;5011807;28;19974;-90
2023/05/23 06:54:21;;;;;;;;;;;;;;;15.24;60.78;101627.34;5012916;28;19917;-95
2023/05/23 06:57:03;;;;;;;;;;;;;;;15.03;59.09;101626.84;5076768;22;19987;-96
2023/05/23 06:59:34;;;;;;;;;;;;;;;14.80;59.89;101631.56;5155779;22;19913;-95
2023/05/23 07:02:01;;;;;;;;;;;;;;;14.72;60.78;101631.16;5122359;22;19910;-96
2023/05/23 07:14:43;;;;;;;;;;;;;;;15.69;57.44;101639.44;5017443;28;19952;-96
2023/05/23 07:17:09;;;;;;;;;;;;;;;15.73;56.44;101646.16;5004383;28;19918;-95
2023/05/23 07:19:34;;;;;;;;;;;;;;;15.86;57.55;101650.63;5026428;28;19902;-96
2023/05/23 07:22:01;;;;;;;;;;;;;;;15.38;58.56;101649.03;4998805;28;19960;-96
2023/05/23 07:24:26;;;;;;;;;;;;;;;15.57;58.47;101646.19;5000525;28;19998;-94
2023/05/23 07:26:51;;;;;;;;;;;;;;;15.84;55.68;101643.72;5021968;28;19902;-95
2023/05/23 07:29:18;;;;;;;;;;;;;;;15.63;55.90;101645.00;5028793;28;19921;-96
2023/05/23 07:31:44;;;;;;;;;;;;;;;15.86;55.97;101655.84;5031535;28;19952;-95
2023/05/23 07:34:11;;;;;;;;;;;;;;;16.19;54.92;101652.94;5014930;28;19918;-95
2023/05/23 07:36:39;;;;;;;;;;;;;;;16.21;54.42;101662.31;5004371;28;19928;-94
2023/05/23 07:39:05;;;;;;;;;;;;;;;16.34;53.78;101651.13;5012928;28;19921;-93
2023/05/23 07:41:30;;;;;;;;;;;;;;;16.40;54.68;101653.38;5015823;28;20327;-93
2023/05/23 07:43:55;;;;;;;;;;;;;;;16.14;54.37;101661.06;4995764;28;19918;-94
2023/05/23 07:46:21;;;;;;;;;;;;;;;16.08;53.41;101661.41;4998820;28;19948;-94
2023/05/23 07:48:47;;;;;;;;;;;;;;;15.91;52.89;101664.22;4997810;28;19979;-94
2023/05/23 07:51:12;;;;;;;;;;;;;;;15.97;53.58;101663.81;4994295;28;20387;-95
2023/05/23 07:53:38;;;;;;;;;;;;;;;16.05;51.36;101662.44;4989193;28;19933;-94
2023/05/23 07:56:04;;;;;;;;;;;;;;;16.23;53.88;101663.06;5007951;28;20353;-94
2023/05/23 07:58:29;;;;;;;;;;;;;;;16.57;53.89;101668.78;4989823;28;19925;-93
2023/05/23 08:00:56;;;;;;;;;;;;;;;16.30;52.58;101670.53;4994290;28;19918;-91
2023/05/23 08:03:22;;;;;;;;;;;;;;;16.46;52.54;101669.47;5013843;28;19940;-94
2023/05/23 08:05:47;;;;;;;;;;;;;;;16.15;52.47;101667.91;5013500;28;20371;-94
2023/05/23 08:08:12;;;;;;;;;;;;;;;16.05;55.11;101666.81;5032011;28;19924;-95
2023/05/23 08:10:38;;;;;;;;;;;;;;;16.22;53.96;101665.78;4994060;28;19921;-94
2023/05/23 08:13:05;;;;;;;;;;;;;;;15.87;52.80;101657.50;4995217;28;19976;-95
2023/05/23 08:15:31;;;;;;;;;;;;;;;15.44;57.07;101658.25;4997171;28;20012;-95
2023/05/23 08:17:57;;;;;;;;;;;;;;;15.47;55.63;101659.84;4995685;28;19971;-94
2023/05/23 08:20:29;;;;;;;;;;;;;;;15.65;55.65;101663.13;5011684;28;19917;-93
2023/05/23 08:22:57;;;;;;;;;;;;;;;15.53;56.08;101662.94;5014156;28;19973;-95
2023/05/23 08:25:23;;;;;;;;;;;;;;;15.34;57.87;101652.75;5014615;28;19971;-96
2023/05/23 08:27:48;;;;;;;;;;;;;;;15.39;54.40;101653.31;4994981;28;19925;-93
2023/05/23 08:30:14;;;;;;;;;;;;;;;15.67;54.08;101651.69;5012244;28;19918;-94
2023/05/23 08:32:39;;;;;;;;;;;;;;;15.66;53.52;101664.81;4994972;28;19918;-93
2023/05/23 08:35:05;;;;;;;;;;;;;;;15.86;53.32;101655.84;5002668;28;19922;-94
2023/05/23 08:37:30;;;;;;;;;;;;;;;15.59;53.05;101643.50;4994979;28;19917;-93
2023/05/23 08:39:56;;;;;;;;;;;;;;;15.67;55.41;101640.44;4992881;28;20169;-93
2023/05/23 08:42:21;;;;;;;;;;;;;;;15.84;52.98;101642.91;4984886;28;19922;-93
2023/05/23 08:44:46;;;;;;;;;;;;;;;16.14;54.31;101637.59;5004738;28;19921;-94
2023/05/23 08:47:14;;;;;;;;;;;;;;;15.87;53.90;101621.06;4994412;28;19929;-94
2023/05/23 08:49:39;;;;;;;;;;;;;;;15.93;55.53;101618.91;5013871;28;20024;-93
2023/05/23 08:52:09;;;;;;;;;;;;;;;15.98;53.73;101623.84;4996085;28;19972;-94
2023/05/23 08:54:35;;;;;;;;;;;;;;;16.53;53.90;101625.59;4994834;28;20283;-94
2023/05/23 08:57:01;;;;;;;;;;;;;;;16.77;51.70;101633.63;5018669;28;19917;-95
2023/05/23 08:59:26;;;;;;;;;;;;;;;17.27;50.46;101631.28;5002602;28;20016;-95
2023/05/23 09:01:54;;;;;;;;;;;;;;;17.02;49.23;101630.31;5016707;28;19917;-96
2023/05/23 09:04:19;;;;;;;;;;;;;;;17.21;48.36;101634.28;4994886;28;20005;-96
2023/05/23 09:06:44;;;;;;;;;;;;;;;17.40;48.67;101632.13;4998771;28;20007;-96
2023/05/23 09:09:10;;;;;;;;;;;;;;;17.63;48.66;101621.88;5000779;28;20379;-95
2023/05/23 09:11:36;;;;;;;;;;;;;;;17.55;50.07;101630.25;4990445;28;20388;-95
2023/05/23 09:14:03;;;;;;;;;;;;;;;17.86;50.96;101634.25;4981461;28;19922;-95
2023/05/23 09:16:32;;;;;;;;;;;;;;;18.12;49.91;101639.44;4989130;28;19928;-95
2023/05/23 09:18:57;;;;;;;;;;;;;;;18.30;47.13;101632.91;5015711;28;19968;-94
2023/05/23 09:21:23;;;;;;;;;;;;;;;18.42;47.77;101627.75;5058650;22;19925;-96
2023/05/23 09:23:49;;;;;;;;;;;;;;;18.70;46.85;101624.78;5027624;28;19921;-96
2023/05/23 09:26:14;;;;;;;;;;;;;;;18.85;46.46;101628.13;5017644;28;19917;-96
2023/05/23 09:28:41;;;;;;;;;;;;;;;18.49;49.34;101627.19;4995713;28;19929;-96
2023/05/23 09:31:07;;;;;;;;;;;;;;;19.29;46.58;101630.97;4993042;28;19932;-96
2023/05/23 09:33:50;;;;;;;;;;;;;;;20.21;43.27;101634.38;4998402;28;19917;-94
2023/05/23 09:36:19;;;;;;;;;;;;;;;20.15;45.42;101632.28;5002932;28;19917;-96
2023/05/23 09:38:45;;;;;;;;;;;;;;;20.80;43.32;101636.66;5025076;28;20009;-96
2023/05/23 09:41:11;;;;;;;;;;;;;;;20.56;43.60;101643.88;5000735;28;19921;-96
2023/05/23 09:43:56;;;;;;;;;;;;;;;20.26;43.82;101647.97;5001229;28;19945;-96
2023/05/23 09:46:27;;;;;;;;;;;;;;;20.35;44.81;101657.72;5007113;28;20007;-96
2023/05/23 09:48:53;;;;;;;;;;;;;;;20.15;46.10;101651.44;5016166;28;20400;-96
2023/05/23 09:51:21;;;;;;;;;;;;;;;20.32;43.97;101652.72;4997512;28;20442;-96
2023/05/23 09:53:47;;;;;;;;;;;;;;;20.48;45.77;101649.69;4998587;28;20403;-96
2023/05/23 09:56:14;;;;;;;;;;;;;;;20.14;42.84;101651.56;4998468;28;20007;-96
2023/05/23 09:58:42;;;;;;;;;;;;;;;18.99;46.24;101656.69;4997970;28;20372;-96
2023/05/23 10:01:09;;;;;;;;;;;;;;;19.00;49.55;101647.09;4998126;28;19924;-96
2023/05/23 10:03:49;;;;;;;;;;;;;;;19.54;44.63;101649.13;5004315;28;19957;-96
2023/05/23 10:06:35;;;;;;;;;;;;;;;20.00;44.07;101653.47;5001122;28;19922;-96
2023/05/23 10:09:05;;;;;;;;;;;;;;;20.37;44.05;101650.56;5007421;28;20426;-96
2023/05/23 10:11:33;;;;;;;;;;;;;;;19.74;46.87;101649.44;5010551;28;20442;-95
2023/05/23 10:14:02;;;;;;;;;;;;;;;20.20;45.39;101648.47;5023717;28;19992;-96
2023/05/23 10:16:35;;;;;;;;;;;;;;;20.64;42.81;101644.09;5005536;28;20407;-96
2023/05/23 10:19:05;;;;;;;;;;;;;;;20.30;42.50;101644.16;5005189;28;19914;-96
2023/05/23 10:21:34;;;;;;;;;;;;;;;20.41;43.66;101641.53;5009583;28;19921;-96
2023/05/23 10:24:01;;;;;;;;;;;;;;;20.48;45.17;101637.44;4997538;28;19924;-96
2023/05/23 10:26:27;;;;;;;;;;;;;;;20.73;43.25;101633.69;5014130;28;20368;-96
2023/05/23 10:36:42;;;;;;;;;;;;;;;19.23;48.43;101654.06;5328152;22;19925;-96
2023/05/23 10:49:53;;;;;;;;;;;;;;;19.58;43.89;101644.47;5186685;22;19968;-96
2023/05/23 10:52:21;;;;;;;;;;;;;;;18.98;46.00;101647.19;5871624;22;20053;-96
2023/05/23 10:59:51;;;;;;;;;;;;;;;18.93;47.67;101651.09;5015446;28;19937;-96
2023/05/23 11:05:11;;;;;;;;;;;;;;;18.53;46.93;101646.09;5241760;22;19959;-96
2023/05/23 11:07:36;;;;;;;;;;;;;;;19.06;47.03;101651.84;5027156;28;19924;-96
2023/05/23 11:10:20;;;;;;;;;;;;;;;18.99;47.13;101661.94;5028263;28;20010;-96
2023/05/23 11:36:04;;;;;;;;;;;;;;;20.32;43.60;101652.72;5326861;22;19925;-96
2023/05/23 11:38:31;;;;;;;;;;;;;;;20.51;41.65;101657.34;5033167;28;19922;-96
2023/05/23 11:40:59;;;;;;;;;;;;;;;20.56;43.40;101654.34;5032861;28;19917;-96
2023/05/23 11:43:25;;;;;;;;;;;;;;;19.94;46.27;101660.97;5043303;28;19928;-96
2023/05/23 11:45:50;;;;;;;;;;;;;;;19.97;44.13;101658.97;5012722;28;19918;-96
2023/05/23 11:48:18;;;;;;;;;;;;;;;20.34;44.47;101663.94;5011779;28;19917;-96
2023/05/23 11:50:45;;;;;;;;;;;;;;;20.37;43.66;101653.19;5011147;28;19918;-96
2023/05/23 11:53:11;;;;;;;;;;;;;;;20.70;44.50;101662.81;5023514;28;19917;-96
2023/05/23 11:55:39;;;;;;;;;;;;;;;20.39;44.16;101664.41;5013903;28;19932;-96
2023/05/23 11:58:04;;;;;;;;;;;;;;;19.78;45.37;101669.19;5023494;28;19917;-96
2023/05/23 12:00:30;;;;;;;;;;;;;;;20.24;43.35;101670.84;5017228;28;20390;-96
2023/05/23 12:02:55;;;;;;;;;;;;;;;20.10;44.46;101659.66;5019656;28;20303;-96
2023/05/23 12:05:20;;;;;;;;;;;;;;;19.44;46.00;101666.50;5018027;28;19917;-95
2023/05/23 12:07:47;;;;;;;;;;;;;;;19.84;43.63;101658.22;5016782;28;19928;-96
2023/05/23 12:10:16;;;;;;;;;;;;;;;20.51;43.71;101663.41;5017213;28;19921;-96
2023/05/23 12:12:42;;;;;;;;;;;;;;;20.33;43.90;101664.03;5017802;28;19921;-96
2023/05/23 12:15:11;;;;;;;;;;;;;;;20.75;42.77;101670.28;5016859;28;19917;-96
2023/05/23 12:17:37;;;;;;;;;;;;;;;20.51;42.74;101668.66;5019149;28;19923;-96
2023/05/23 12:20:03;;;;;;;;;;;;;;;20.51;41.07;101667.84;5017097;28;19921;-95
2023/05/23 12:22:29;;;;;;;;;;;;;;;20.85;41.24;101671.22;5016783;28;19917;-95
2023/05/23 12:24:55;;;;;;;;;;;;;;;21.17;42.10;101673.00;5018319;28;19921;-96
2023/05/23 12:27:33;;;;;;;;;;;;;;;21.28;42.20;101672.91;5021203;28;19917;-96
2023/05/23 12:30:12;;;;;;;;;;;;;;;21.63;40.06;101666.56;5020264;28;20302;-95
2023/05/23 12:32:38;;;;;;;;;;;;;;;22.05;39.71;101663.81;5021917;28;19920;-96
2023/05/23 12:35:04;;;;;;;;;;;;;;;21.38;42.72;101658.09;5021206;28;19921;-96
2023/05/23 12:37:29;;;;;;;;;;;;;;;21.87;38.96;101652.25;5021407;28;20405;-95
2023/05/23 12:39:55;;;;;;;;;;;;;;;22.11;38.89;101658.00;5020287;28;19925;-96
2023/05/23 12:42:20;;;;;;;;;;;;;;;21.63;39.50;101656.03;5020999;28;19948;-96
2023/05/23 12:44:48;;;;;;;;;;;;;;;21.51;39.10;101646.56;5020836;28;20307;-96
2023/05/23 12:47:13;;;;;;;;;;;;;;;22.28;38.30;101642.59;5020507;28;20003;-96
2023/05/23 12:49:39;;;;;;;;;;;;;;;22.59;38.76;101644.16;5021187;28;20379;-96
2023/05/23 12:52:04;;;;;;;;;;;;;;;22.77;37.16;101638.22;5020911;28;20019;-94
2023/05/23 12:54:30;;;;;;;;;;;;;;;23.11;36.68;101640.44;5019027;28;19921;-96
2023/05/23 12:56:55;;;;;;;;;;;;;;;23.25;37.87;101640.03;5018119;28;19933;-96
2023/05/23 12:59:20;;;;;;;;;;;;;;;23.10;38.54;101641.44;5021645;28;19917;-96
2023/05/23 13:01:46;;;;;;;;;;;;;;;23.33;37.60;101640.13;5022489;28;19921;-95
2023/05/23 13:04:11;;;;;;;;;;;;;;;23.00;36.43;101634.38;5020588;28;19917;-96
2023/05/23 13:06:36;;;;;;;;;;;;;;;21.64;41.63;101638.47;5021098;28;20419;-96
2023/05/23 13:09:02;;;;;;;;;;;;;;;21.69;39.30;101633.66;5021269;28;19921;-95
2023/05/23 13:11:27;;;;;;;;;;;;;;;22.30;38.97;101622.25;5019900;28;19917;-96
2023/05/23 13:13:53;;;;;;;;;;;;;;;22.58;39.23;101621.47;5018703;28;19935;-96
2023/05/23 13:16:18;;;;;;;;;;;;;;;22.66;38.71;101628.66;5020432;28;19923;-95
2023/05/23 13:18:43;;;;;;;;;;;;;;;23.17;38.31;101629.38;5021878;28;19959;-96
2023/05/23 13:21:09;;;;;;;;;;;;;;;23.00;38.05;101631.75;5020205;28;20405;-96
2023/05/23 13:23:36;;;;;;;;;;;;;;;22.97;38.21;101634.63;5021505;28;20319;-96
2023/05/23 13:26:01;;;;;;;;;;;;;;;22.71;39.11;101623.81;5020039;28;19920;-96
2023/05/23 13:28:27;;;;;;;;;;;;;;;22.64;38.90;101630.59;5021158;28;19956;-96
2023/05/23 13:30:53;;;;;;;;;;;;;;;22.25;41.06;101630.56;5020673;28;19921;-96
2023/05/23 13:33:18;;;;;;;;;;;;;;;21.92;43.70;101644.81;5019621;28;20295;-95
2023/05/23 13:35:44;;;;;;;;;;;;;;;21.87;40.90;101647.00;5022039;28;19921;-96